createdAt,value
2022-11-19T00:01:44.890Z,2.33
2022-11-19T00:04:11.883Z,2.60
2022-11-19T00:06:38.562Z,2.60
2022-11-19T00:09:06.042Z,2.20
2022-11-19T00:11:51.432Z,2.88
2022-11-19T00:14:18.766Z,3.00
2022-11-19T00:16:46.525Z,2.78
2022-11-19T00:19:14.854Z,2.42
2022-11-19T00:21:41.681Z,2.00
2022-11-19T00:24:08.838Z,1.90
2022-11-19T00:26:36.688Z,2.38
2022-11-19T00:29:03.510Z,2.83
2022-11-19T00:31:31.657Z,2.28
2022-11-19T00:33:58.479Z,2.40
2022-11-19T00:36:25.241Z,2.80
2022-11-19T00:38:52.055Z,3.42
2022-11-19T00:41:18.992Z,2.70
2022-11-19T00:43:49.158Z,2.83
2022-11-19T00:46:52.431Z,2.47
2022-11-19T00:49:19.534Z,2.88
2022-11-19T00:51:46.963Z,2.28
2022-11-19T00:54:13.900Z,2.40
2022-11-19T00:56:42.477Z,2.17
2022-11-19T00:59:10.972Z,1.88
2022-11-19T01:01:37.711Z,2.00
2022-11-19T01:04:04.805Z,2.58
2022-11-19T01:06:31.852Z,2.22
2022-11-19T01:08:59.056Z,2.20
2022-11-19T01:11:29.408Z,2.13
2022-11-19T01:13:56.641Z,2.20
2022-11-19T01:16:44.541Z,2.88
2022-11-19T01:19:11.871Z,3.42
2022-11-19T01:21:38.694Z,3.95
2022-11-19T01:24:06.031Z,3.38
2022-11-19T01:26:32.734Z,2.72
2022-11-19T01:29:00.135Z,2.28
2022-11-19T01:31:30.006Z,2.20
2022-11-19T01:33:57.285Z,3.20
2022-11-19T01:36:26.532Z,2.72
2022-11-19T01:38:54.753Z,2.53
2022-11-19T01:41:27.762Z,3.22
2022-11-19T01:44:00.437Z,2.45
2022-11-19T01:46:29.946Z,2.72
2022-11-19T01:49:04.983Z,2.95
2022-11-19T01:51:35.057Z,2.65
2022-11-19T01:54:26.562Z,2.53
2022-11-19T01:56:56.801Z,2.97
2022-11-19T01:59:24.192Z,3.45
2022-11-19T02:01:50.999Z,3.33
2022-11-19T02:04:19.177Z,3.50
2022-11-19T02:06:46.402Z,3.92
2022-11-19T02:09:13.317Z,3.10
2022-11-19T02:12:01.756Z,2.60
2022-11-19T02:14:55.035Z,3.67
2022-11-19T02:17:24.852Z,4.97
2022-11-19T02:20:13.410Z,2.60
2022-11-19T02:23:03.306Z,1.85
2022-11-19T02:25:39.402Z,1.70
2022-11-19T02:28:15.079Z,1.70
2022-11-19T02:30:50.294Z,2.03
2022-11-19T02:33:19.856Z,1.83
2022-11-19T02:35:53.669Z,1.88
2022-11-19T02:38:29.912Z,1.77
2022-11-19T02:41:01.455Z,2.50
2022-11-19T02:43:39.192Z,2.88
2022-11-19T02:46:15.283Z,2.97
2022-11-19T02:48:50.325Z,2.90
2022-11-19T02:51:18.848Z,4.57
2022-11-19T02:53:48.821Z,3.95
2022-11-19T02:56:49.991Z,4.60
2022-11-19T02:59:41.186Z,3.78
2022-11-19T03:02:29.406Z,3.33
2022-11-19T03:04:56.956Z,3.60
2022-11-19T03:07:23.876Z,2.78
2022-11-19T03:09:56.158Z,2.60
2022-11-19T03:12:44.695Z,2.25
2022-11-19T03:15:44.841Z,2.00
2022-11-19T03:18:30.959Z,1.85
2022-11-19T03:21:23.435Z,1.75
2022-11-19T03:24:05.386Z,1.48
2022-11-19T03:26:57.643Z,1.55
2022-11-19T03:29:27.948Z,1.70
2022-11-19T03:32:00.805Z,1.30
2022-11-19T03:34:31.289Z,1.50
2022-11-19T03:37:01.829Z,1.55
2022-11-19T03:39:29.572Z,1.67
2022-11-19T03:41:58.128Z,1.83
2022-11-19T03:44:36.792Z,2.10
2022-11-19T03:47:17.024Z,2.25
2022-11-19T03:49:49.556Z,2.90
2022-11-19T03:52:19.809Z,4.30
2022-11-19T03:54:49.110Z,2.40
2022-11-19T03:57:20.530Z,2.40
2022-11-19T03:59:47.387Z,2.33
2022-11-19T04:02:14.696Z,2.40
2022-11-19T04:04:41.899Z,2.83
2022-11-19T04:07:12.897Z,2.85
2022-11-19T04:09:41.261Z,1.80
2022-11-19T04:12:15.685Z,1.35
2022-11-19T04:14:43.081Z,2.70
2022-11-19T04:17:10.149Z,1.65
2022-11-19T04:19:37.076Z,2.90
2022-11-19T04:22:03.982Z,3.25
2022-11-19T04:24:30.791Z,2.92
2022-11-19T04:26:57.850Z,1.98
2022-11-19T04:29:24.886Z,2.22
2022-11-19T04:31:51.602Z,2.00
2022-11-19T04:34:18.714Z,2.20
2022-11-19T04:36:45.888Z,1.98
2022-11-19T04:39:12.881Z,2.30
2022-11-19T04:41:40.928Z,2.10
2022-11-19T04:44:10.189Z,2.40
2022-11-19T04:46:36.987Z,2.05
2022-11-19T04:49:04.027Z,2.20
2022-11-19T04:51:31.009Z,1.75
2022-11-19T04:53:57.788Z,2.67
2022-11-19T04:56:24.790Z,1.83
2022-11-19T04:58:51.494Z,2.55
2022-11-19T05:01:20.695Z,1.38
2022-11-19T05:03:48.250Z,1.67
2022-11-19T05:06:15.193Z,1.55
2022-11-19T05:08:45.232Z,1.50
2022-11-19T05:11:12.200Z,1.70
2022-11-19T05:13:39.056Z,2.50
2022-11-19T05:16:06.625Z,2.00
2022-11-19T05:18:33.445Z,2.55
2022-11-19T05:21:00.391Z,2.78
2022-11-19T05:23:27.105Z,3.92
2022-11-19T05:25:54.045Z,6.05
2022-11-19T05:28:32.772Z,6.55
2022-11-19T05:31:05.434Z,7.00
2022-11-19T05:33:34.233Z,8.43
2022-11-19T05:36:09.226Z,8.57
2022-11-19T05:38:37.521Z,7.53
2022-11-19T05:41:04.296Z,5.28
2022-11-19T05:43:31.364Z,5.55
2022-11-19T05:46:02.774Z,3.42
2022-11-19T05:48:30.492Z,7.13
2022-11-19T05:50:57.225Z,5.30
2022-11-19T05:53:24.197Z,4.78
2022-11-19T05:55:50.969Z,5.28
2022-11-19T05:58:20.776Z,4.93
2022-11-19T06:00:48.692Z,4.72
2022-11-19T06:03:15.555Z,3.88
2022-11-19T06:05:42.785Z,5.00
2022-11-19T06:08:12.520Z,4.97
2022-11-19T06:10:39.389Z,6.20
2022-11-19T06:13:06.596Z,6.15
2022-11-19T06:15:33.318Z,5.88
2022-11-19T06:18:03.062Z,9.55
2022-11-19T06:20:30.409Z,9.40
2022-11-19T06:22:59.468Z,10.27
2022-11-19T06:25:31.668Z,13.10
2022-11-19T06:27:58.518Z,13.15
2022-11-19T06:30:31.372Z,10.60
2022-11-19T06:33:05.876Z,5.50
2022-11-19T06:35:33.016Z,12.07
2022-11-19T06:37:59.862Z,12.25
2022-11-19T06:40:27.098Z,10.70
2022-11-19T06:42:53.857Z,6.97
2022-11-19T06:45:20.599Z,5.90
2022-11-19T06:48:02.003Z,4.72
2022-11-19T06:50:28.719Z,3.45
2022-11-19T06:52:55.505Z,3.28
2022-11-19T06:55:22.792Z,3.05
2022-11-19T06:57:49.605Z,2.60
2022-11-19T07:00:17.195Z,2.28
2022-11-19T07:02:44.235Z,1.73
2022-11-19T07:05:11.315Z,1.88
2022-11-19T07:07:41.479Z,2.60
2022-11-19T07:10:08.920Z,2.85
2022-11-19T07:12:35.914Z,2.97
2022-11-19T07:15:04.716Z,3.05
2022-11-19T07:17:34.631Z,3.45
2022-11-19T07:20:02.207Z,3.55
2022-11-19T07:22:29.378Z,3.38
2022-11-19T07:24:56.215Z,3.53
2022-11-19T07:27:23.242Z,4.93
2022-11-19T07:29:49.961Z,4.18
2022-11-19T07:32:16.881Z,3.13
2022-11-19T07:34:43.989Z,3.65
2022-11-19T07:37:11.155Z,2.28
2022-11-19T07:39:38.459Z,1.65
2022-11-19T07:42:24.131Z,1.40
2022-11-19T07:44:55.092Z,2.15
2022-11-19T07:47:22.317Z,1.30
2022-11-19T07:50:01.605Z,1.75
2022-11-19T07:52:39.182Z,1.63
2022-11-19T07:55:13.665Z,1.77
2022-11-19T07:58:10.917Z,1.95
2022-11-19T08:00:50.724Z,2.25
2022-11-19T08:03:20.656Z,2.72
2022-11-19T08:05:53.744Z,3.15
2022-11-19T08:08:20.448Z,2.40
2022-11-19T08:10:47.237Z,2.85
2022-11-19T08:13:14.348Z,2.70
2022-11-19T08:15:41.296Z,2.95
2022-11-19T08:18:13.217Z,3.53
2022-11-19T08:20:42.030Z,3.05
2022-11-19T08:23:23.014Z,3.55
2022-11-19T08:47:32.009Z,4.88
2022-11-19T08:52:57.568Z,6.28
2022-11-19T09:04:10.356Z,7.47
2022-11-19T09:06:37.331Z,8.32
2022-11-19T09:09:07.331Z,10.70
2022-11-19T09:11:41.197Z,7.85
2022-11-19T09:14:09.384Z,7.15
2022-11-19T09:16:36.489Z,6.18
2022-11-19T09:19:03.348Z,8.45
2022-11-19T09:21:32.749Z,7.90
2022-11-19T09:24:02.535Z,3.70
2022-11-19T09:26:29.263Z,2.33
2022-11-19T09:29:01.402Z,1.45
2022-11-19T09:31:29.245Z,1.15
2022-11-19T09:33:56.383Z,1.10
2022-11-19T09:36:23.435Z,1.05
2022-11-19T09:38:50.786Z,1.02
2022-11-19T09:44:48.665Z,1.20
2022-11-19T09:47:51.990Z,1.10
2022-11-19T10:33:55.154Z,1.77
2022-11-19T10:36:39.280Z,1.90
2022-11-19T10:39:15.401Z,1.80
2022-11-19T10:42:00.253Z,1.67
2022-11-19T10:44:43.472Z,2.40
2022-11-19T10:47:24.030Z,7.05
2022-11-19T10:49:55.396Z,1.92
2022-11-19T10:52:28.157Z,1.55
2022-11-19T10:55:18.106Z,1.88
2022-11-19T10:57:47.241Z,1.27
2022-11-19T11:00:25.292Z,1.50
2022-11-19T11:03:19.711Z,1.33
2022-11-19T11:06:06.013Z,1.20
2022-11-19T11:33:34.370Z,1.40
2022-11-19T11:36:08.286Z,1.00
2022-11-19T11:38:49.468Z,1.30
2022-11-19T11:44:15.382Z,1.50
2022-11-19T11:47:02.018Z,1.23
2022-11-19T11:49:37.112Z,1.70
2022-11-19T11:52:09.943Z,1.50
2022-11-19T11:54:38.986Z,2.05
2022-11-19T11:57:28.102Z,2.35
2022-11-19T11:59:56.054Z,1.25
2022-11-19T12:02:33.013Z,1.70
2022-11-19T12:05:11.168Z,1.10
2022-11-19T12:08:04.576Z,1.52
2022-11-19T12:10:51.718Z,1.30
2022-11-19T12:13:38.233Z,1.38
2022-11-19T12:16:13.732Z,1.83
2022-11-19T12:19:17.318Z,1.30
2022-11-19T12:21:47.292Z,1.35
2022-11-19T12:24:53.645Z,1.23
2022-11-19T12:27:34.811Z,1.10
2022-11-19T12:30:15.198Z,1.83
2022-11-19T12:33:30.738Z,2.17
2022-11-19T12:40:00.559Z,1.52
2022-11-19T12:42:45.785Z,1.38
2022-11-19T12:45:25.835Z,1.63
2022-11-19T12:48:24.108Z,1.77
2022-11-19T12:51:12.442Z,2.05
2022-11-19T12:53:54.326Z,2.38
2022-11-19T12:56:52.237Z,2.25
2022-11-19T12:59:31.597Z,2.25
2022-11-19T13:02:01.623Z,2.22
2022-11-19T13:04:49.182Z,2.65
2022-11-19T13:07:25.471Z,2.20
2022-11-19T13:10:00.751Z,1.90
2022-11-19T13:12:39.318Z,1.77
2022-11-19T13:15:17.978Z,1.83
2022-11-19T13:17:53.470Z,1.80
2022-11-19T13:20:27.558Z,2.10
2022-11-19T13:22:59.976Z,2.13
2022-11-19T13:25:36.892Z,1.60
2022-11-19T13:28:14.269Z,1.70
2022-11-19T13:30:45.245Z,1.95
2022-11-19T13:33:35.638Z,1.38
2022-11-19T13:36:11.080Z,1.38
2022-11-19T13:38:53.680Z,1.63
2022-11-19T13:42:02.624Z,2.08
2022-11-19T13:44:38.939Z,1.95
2022-11-19T13:47:21.150Z,2.08
2022-11-19T13:50:02.041Z,2.33
2022-11-19T13:55:39.523Z,2.40
2022-11-19T13:58:15.488Z,2.67
2022-11-19T14:01:08.511Z,1.77
2022-11-19T14:04:02.716Z,1.95
2022-11-19T14:06:54.345Z,2.10
2022-11-19T14:09:21.159Z,1.50
2022-11-19T14:12:08.361Z,1.42
2022-11-19T14:15:25.973Z,1.67
2022-11-19T14:18:36.684Z,1.33
2022-11-19T14:22:00.001Z,1.63
2022-11-19T14:24:46.002Z,1.67
2022-11-19T14:27:32.866Z,1.77
2022-11-19T14:30:13.854Z,2.10
2022-11-19T14:32:46.640Z,2.80
2022-11-19T14:35:33.363Z,1.40
2022-11-19T14:38:08.965Z,1.90
2022-11-19T14:40:42.455Z,1.50
2022-11-19T14:43:35.178Z,1.25
2022-11-19T14:46:02.953Z,1.60
2022-11-19T14:48:31.893Z,1.48
2022-11-19T14:51:03.852Z,1.40
2022-11-19T14:53:30.652Z,1.55
2022-11-19T14:55:59.542Z,2.58
2022-11-19T14:58:27.095Z,2.40
2022-11-19T15:01:15.520Z,2.53
2022-11-19T15:04:11.867Z,3.22
2022-11-19T15:06:38.757Z,2.65
2022-11-19T15:09:06.077Z,1.17
2022-11-19T15:11:57.416Z,1.90
2022-11-19T15:14:38.308Z,1.50
2022-11-19T15:17:07.224Z,1.75
2022-11-19T15:19:53.046Z,1.70
2022-11-19T15:22:52.872Z,1.63
2022-11-19T15:25:28.233Z,1.73
2022-11-19T15:28:06.625Z,1.80
2022-11-19T15:31:08.655Z,2.13
2022-11-19T15:34:07.405Z,2.20
2022-11-19T15:36:41.417Z,2.30
2022-11-19T15:39:36.775Z,2.40
2022-11-19T15:42:11.641Z,1.65
2022-11-19T15:44:45.957Z,2.15
2022-11-19T15:47:25.759Z,2.35
2022-11-19T15:49:53.820Z,2.40
2022-11-19T15:52:27.231Z,2.03
2022-11-19T15:55:21.120Z,1.90
2022-11-19T15:57:52.329Z,2.22
2022-11-19T16:00:25.509Z,2.45
2022-11-19T16:02:53.534Z,2.13
2022-11-19T16:05:23.329Z,2.22
2022-11-19T16:07:58.870Z,2.47
2022-11-19T16:10:33.284Z,2.17
2022-11-19T16:13:22.504Z,2.28
2022-11-19T16:16:11.593Z,3.22
2022-11-19T16:18:52.353Z,1.98
2022-11-19T16:21:40.522Z,1.67
2022-11-19T16:24:32.369Z,1.63
2022-11-19T16:27:01.468Z,1.80
2022-11-19T16:29:30.574Z,1.60
2022-11-19T16:32:02.620Z,1.60
2022-11-19T16:34:31.769Z,2.15
2022-11-19T16:36:59.269Z,1.50
2022-11-19T16:39:31.946Z,2.05
2022-11-19T16:42:18.108Z,1.67
2022-11-19T16:44:49.178Z,2.08
2022-11-19T16:47:33.837Z,2.53
2022-11-19T16:50:05.508Z,2.22
2022-11-19T16:52:35.011Z,2.08
2022-11-19T16:55:06.255Z,1.80
2022-11-19T16:57:33.400Z,2.53
2022-11-19T17:00:36.405Z,2.15
2022-11-19T17:03:29.694Z,2.35
2022-11-19T17:05:57.810Z,1.83
2022-11-19T17:08:31.461Z,2.53
2022-11-19T17:11:38.930Z,2.05
2022-11-19T17:14:13.597Z,3.10
2022-11-19T17:16:47.134Z,2.28
2022-11-19T17:19:26.544Z,2.30
2022-11-19T17:22:02.399Z,2.20
2022-11-19T17:24:42.513Z,2.83
2022-11-19T17:27:28.414Z,2.20
2022-11-19T17:30:25.061Z,2.30
2022-11-19T17:33:01.623Z,2.30
2022-11-19T17:35:55.667Z,2.08
2022-11-19T17:38:31.946Z,2.20
2022-11-19T17:41:01.246Z,2.80
2022-11-19T17:43:51.672Z,3.70
2022-11-19T17:46:19.625Z,3.55
2022-11-19T17:48:49.960Z,2.70
2022-11-19T17:51:18.964Z,2.92
2022-11-19T17:53:47.301Z,2.53
2022-11-19T17:56:28.370Z,3.05
2022-11-19T17:58:56.134Z,3.85
2022-11-19T18:01:23.310Z,3.90
2022-11-19T18:03:50.333Z,3.70
2022-11-19T18:06:18.429Z,4.20
2022-11-19T18:08:45.975Z,2.60
2022-11-19T18:11:31.450Z,3.35
2022-11-19T18:14:02.024Z,6.95
2022-11-19T18:16:35.067Z,3.50
2022-11-19T18:19:01.807Z,5.30
2022-11-19T18:21:28.787Z,3.13
2022-11-19T18:23:56.517Z,3.35
2022-11-19T18:26:23.957Z,4.07
2022-11-19T18:28:51.278Z,3.70
2022-11-19T18:31:23.170Z,4.00
2022-11-19T18:34:07.093Z,4.03
2022-11-19T18:36:34.904Z,3.25
2022-11-19T18:39:05.116Z,3.28
2022-11-19T18:41:32.288Z,3.53
2022-11-19T18:44:18.417Z,3.25
2022-11-19T18:46:45.243Z,3.25
2022-11-19T18:49:23.208Z,3.15
2022-11-19T18:51:52.840Z,4.00
2022-11-19T18:54:21.648Z,3.83
2022-11-19T18:56:49.177Z,3.63
2022-11-19T18:59:18.195Z,3.60
2022-11-19T19:01:54.252Z,4.35
2022-11-19T19:04:23.993Z,3.20
2022-11-19T19:06:57.728Z,3.13
2022-11-19T19:09:25.795Z,3.70
2022-11-19T19:12:13.773Z,2.95
2022-11-19T19:14:43.059Z,3.20
2022-11-19T19:17:11.032Z,3.10
2022-11-19T19:22:20.947Z,2.83
2022-11-19T19:24:50.724Z,2.72
2022-11-19T19:27:19.894Z,2.72
2022-11-19T19:29:49.479Z,3.05
2022-11-19T19:32:17.676Z,2.70
2022-11-19T19:35:00.550Z,2.75
2022-11-19T19:37:27.579Z,2.40
2022-11-19T19:39:54.793Z,2.88
2022-11-19T19:42:21.893Z,2.40
2022-11-19T19:44:51.045Z,2.92
2022-11-19T19:47:20.798Z,2.53
2022-11-19T19:49:49.385Z,2.60
2022-11-19T19:52:16.206Z,2.85
2022-11-19T19:54:45.012Z,2.50
2022-11-19T19:57:12.318Z,2.97
2022-11-19T19:59:39.277Z,2.70
2022-11-19T20:02:06.744Z,2.55
2022-11-19T20:04:33.860Z,2.25
2022-11-19T20:07:00.611Z,2.25
2022-11-19T20:09:27.907Z,2.70
2022-11-19T20:11:55.222Z,2.38
2022-11-19T20:14:22.055Z,2.88
2022-11-19T20:16:50.063Z,3.03
2022-11-19T20:19:16.998Z,2.80
2022-11-19T20:21:43.965Z,2.45
2022-11-19T20:24:13.570Z,3.00
2022-11-19T20:26:42.773Z,2.90
2022-11-19T20:29:14.503Z,3.05
2022-11-19T20:31:46.647Z,2.30
2022-11-19T20:34:13.682Z,2.65
2022-11-19T20:36:42.693Z,2.88
2022-11-19T20:39:09.828Z,2.55
2022-11-19T20:41:55.305Z,2.58
2022-11-19T20:44:23.542Z,2.65
2022-11-19T20:46:54.040Z,2.95
2022-11-19T20:49:24.609Z,2.15
2022-11-19T20:51:53.242Z,2.25
2022-11-19T20:54:21.813Z,2.47
2022-11-19T20:56:49.680Z,2.38
2022-11-19T20:59:17.223Z,2.20
2022-11-19T21:01:44.361Z,2.42
2022-11-19T21:04:12.218Z,2.20
2022-11-19T21:06:39.684Z,1.92
2022-11-19T21:09:06.927Z,2.35
2022-11-19T21:11:34.372Z,2.00
2022-11-19T21:14:10.549Z,2.28
2022-11-19T21:16:37.798Z,1.95
2022-11-19T21:19:05.240Z,1.80
2022-11-19T21:21:32.998Z,2.10
2022-11-19T21:23:59.990Z,2.05
2022-11-19T21:26:29.173Z,2.28
2022-11-19T21:28:58.996Z,2.00
2022-11-19T21:31:45.723Z,1.80
2022-11-19T21:34:20.816Z,2.38
2022-11-19T21:36:48.467Z,2.15
2022-11-19T21:39:16.680Z,1.83
2022-11-19T21:41:44.246Z,2.28
2022-11-19T21:44:13.327Z,2.25
2022-11-19T21:46:44.409Z,2.55
2022-11-19T21:49:11.867Z,2.35
2022-11-19T21:51:38.584Z,2.50
2022-11-19T21:54:13.186Z,2.65
2022-11-19T21:56:40.343Z,1.98
2022-11-19T21:59:07.688Z,1.55
2022-11-19T22:01:34.493Z,1.83
2022-11-19T22:04:01.765Z,2.25
2022-11-19T22:06:28.543Z,1.70
2022-11-19T22:08:55.611Z,1.80
2022-11-19T22:11:31.920Z,2.13
2022-11-19T22:14:00.658Z,2.00
2022-11-19T22:16:28.099Z,1.92
2022-11-19T22:18:55.122Z,1.83
2022-11-19T22:21:22.126Z,1.80
2022-11-19T22:23:50.696Z,2.58
2022-11-19T22:26:17.449Z,1.80
2022-11-19T22:28:44.621Z,1.90
2022-11-19T22:31:11.926Z,2.17
2022-11-19T22:33:56.126Z,2.00
2022-11-19T22:36:23.949Z,2.22
2022-11-19T22:38:52.162Z,2.17
2022-11-19T22:41:20.765Z,1.50
2022-11-19T22:43:48.204Z,2.42
2022-11-19T22:46:15.629Z,2.03
2022-11-19T22:48:42.760Z,1.70
2022-11-19T22:51:36.509Z,1.88
2022-11-19T22:54:03.602Z,1.80
2022-11-19T22:56:31.224Z,1.48
2022-11-19T22:59:03.549Z,1.55
2022-11-19T23:01:52.938Z,2.15
2022-11-19T23:04:24.799Z,2.55
2022-11-19T23:06:51.925Z,1.67
2022-11-19T23:09:21.133Z,1.80
2022-11-19T23:12:06.536Z,1.63
2022-11-19T23:14:33.347Z,2.05
2022-11-19T23:17:00.714Z,2.10
2022-11-19T23:19:27.390Z,1.60
2022-11-19T23:21:54.604Z,1.50
2022-11-19T23:27:02.415Z,1.58
2022-11-19T23:29:29.266Z,1.80
2022-11-19T23:31:56.139Z,1.58
2022-11-19T23:34:31.398Z,2.13
2022-11-19T23:36:58.218Z,1.70
2022-11-19T23:39:25.515Z,1.92
2022-11-19T23:41:52.189Z,1.73
2022-11-19T23:44:19.032Z,1.75
2022-11-19T23:46:45.933Z,1.40
2022-11-19T23:49:12.680Z,1.70
2022-11-19T23:51:40.174Z,2.15
2022-11-19T23:54:07.234Z,1.90
2022-11-19T23:56:36.364Z,1.70
2022-11-19T23:59:05.427Z,1.65
